createdAt,value
2017-04-14T00:00:33.672Z,0
2017-04-14T00:01:33.601Z,0
2017-04-14T00:02:33.574Z,0
2017-04-14T00:03:33.554Z,0
2017-04-14T00:04:33.222Z,0
2017-04-14T00:05:33.500Z,0
2017-04-14T00:06:33.477Z,0
2017-04-14T00:07:33.510Z,0
2017-04-14T00:08:33.121Z,0
2017-04-14T00:09:33.411Z,0
2017-04-14T00:10:33.376Z,0
2017-04-14T00:11:33.364Z,0
2017-04-14T00:12:33.328Z,0
2017-04-14T00:13:33.303Z,0
2017-04-14T00:14:33.318Z,0
2017-04-14T00:15:33.551Z,0
2017-04-14T00:16:33.224Z,0
2017-04-14T00:17:33.214Z,0
2017-04-14T00:18:33.187Z,0
2017-04-14T00:19:33.214Z,0
2017-04-14T00:20:33.133Z,0
2017-04-14T00:21:33.109Z,0
2017-04-14T00:22:33.080Z,0
2017-04-14T00:23:33.069Z,0
2017-04-14T00:24:33.037Z,0
2017-04-14T00:25:33.061Z,0
2017-04-14T00:26:32.985Z,0
2017-04-14T00:27:33.013Z,0
2017-04-14T00:28:32.935Z,0
2017-04-14T00:29:32.614Z,0
2017-04-14T00:30:32.885Z,0
2017-04-14T00:31:32.853Z,0
2017-04-14T00:32:32.840Z,0
2017-04-14T00:33:32.813Z,0
2017-04-14T00:34:32.788Z,0
2017-04-14T00:35:33.010Z,0
2017-04-14T00:36:32.436Z,0
2017-04-14T00:37:32.721Z,0
2017-04-14T00:38:32.096Z,0
2017-04-14T00:39:32.361Z,0
2017-04-14T00:40:32.088Z,0
2017-04-14T00:41:32.315Z,0
2017-04-14T00:42:32.591Z,0
2017-04-14T00:43:32.663Z,0
2017-04-14T00:44:31.948Z,0
2017-04-14T00:45:32.518Z,0
2017-04-14T00:46:32.554Z,0
2017-04-14T00:47:32.174Z,0
2017-04-14T00:48:32.453Z,0
2017-04-14T00:49:32.411Z,0
2017-04-14T00:50:32.393Z,0
2017-04-14T00:51:33.075Z,0
2017-04-14T00:52:32.041Z,0
2017-04-14T00:53:32.334Z,0
2017-04-14T00:54:32.350Z,0
2017-04-14T00:55:32.281Z,0
2017-04-14T00:56:32.301Z,0
2017-04-14T00:57:32.261Z,0
2017-04-14T00:58:32.202Z,0
2017-04-14T00:59:33.919Z,0
2017-04-14T01:00:31.861Z,0
2017-04-14T01:01:31.822Z,0
2017-04-14T01:02:32.153Z,0
2017-04-14T01:03:32.123Z,0
2017-04-14T01:04:32.065Z,0
2017-04-14T01:05:32.022Z,0
2017-04-14T01:06:31.711Z,0
2017-04-14T01:07:31.977Z,0
2017-04-14T01:08:31.992Z,0
2017-04-14T01:09:31.913Z,0
2017-04-14T01:10:31.897Z,0
2017-04-14T01:11:31.870Z,0
2017-04-14T01:12:31.543Z,0
2017-04-14T01:13:31.825Z,0
2017-04-14T01:14:31.805Z,0
2017-04-14T01:15:31.774Z,0
2017-04-14T01:16:31.456Z,0
2017-04-14T01:17:31.738Z,0
2017-04-14T01:18:31.694Z,0
2017-04-14T01:19:31.678Z,0
2017-04-14T01:20:31.655Z,0
2017-04-14T01:21:31.322Z,0
2017-04-14T01:22:31.614Z,0
2017-04-14T01:23:31.570Z,0
2017-04-14T01:24:31.542Z,0
2017-04-14T01:25:31.519Z,0
2017-04-14T01:26:31.492Z,0
2017-04-14T01:27:31.481Z,0
2017-04-14T01:28:31.443Z,0
2017-04-14T01:29:31.415Z,0
2017-04-14T01:30:31.449Z,0
2017-04-14T01:31:31.369Z,0
2017-04-14T01:32:31.351Z,0
2017-04-14T01:33:31.824Z,0
2017-04-14T01:34:31.296Z,0
2017-04-14T01:35:31.269Z,0
2017-04-14T01:36:31.250Z,0
2017-04-14T01:37:31.215Z,0
2017-04-14T01:38:31.204Z,0
2017-04-14T01:39:31.176Z,0
2017-04-14T01:40:31.146Z,0
2017-04-14T01:41:31.117Z,0
2017-04-14T01:42:31.094Z,0
2017-04-14T01:43:31.078Z,0
2017-04-14T01:44:31.087Z,0
2017-04-14T01:45:31.016Z,0
2017-04-14T01:46:31.297Z,0
2017-04-14T01:47:30.666Z,0
2017-04-14T01:48:31.004Z,0
2017-04-14T01:49:30.617Z,0
2017-04-14T01:50:30.896Z,0
2017-04-14T01:51:30.867Z,0
2017-04-14T01:52:30.846Z,0
2017-04-14T01:53:31.666Z,0
2017-04-14T01:54:30.743Z,0
2017-04-14T01:55:30.768Z,0
2017-04-14T01:56:30.750Z,0
2017-04-14T01:57:30.775Z,0
2017-04-14T01:58:30.695Z,0
2017-04-14T01:59:30.683Z,0
2017-04-14T02:00:30.684Z,0
2017-04-14T02:01:30.632Z,0
2017-04-14T02:02:30.302Z,0
2017-04-14T02:03:30.573Z,0
2017-04-14T02:04:30.542Z,0
2017-04-14T02:05:30.522Z,0
2017-04-14T02:06:30.555Z,0
2017-04-14T02:07:30.481Z,0
2017-04-14T02:08:29.837Z,0
2017-04-14T02:09:30.415Z,0
2017-04-14T02:10:30.390Z,0
2017-04-14T02:11:30.373Z,0
2017-04-14T02:12:30.341Z,0
2017-04-14T02:13:30.363Z,0
2017-04-14T02:14:30.298Z,0
2017-04-14T02:15:30.270Z,0
2017-04-14T02:16:30.241Z,0
2017-04-14T02:17:30.210Z,0
2017-04-14T02:18:30.192Z,0
2017-04-14T02:19:30.171Z,0
2017-04-14T02:20:30.190Z,0
2017-04-14T02:21:30.173Z,0
2017-04-14T02:22:30.101Z,0
2017-04-14T02:23:30.073Z,0
2017-04-14T02:24:30.098Z,0
2017-04-14T02:25:30.025Z,0
2017-04-14T02:26:29.992Z,0
2017-04-14T02:27:29.968Z,0
2017-04-14T02:28:29.941Z,0
2017-04-14T02:29:29.911Z,0
2017-04-14T02:30:29.883Z,0
2017-04-14T02:31:29.866Z,0
2017-04-14T02:32:29.845Z,0
2017-04-14T02:33:29.810Z,0
2017-04-14T02:34:29.784Z,0
2017-04-14T02:35:29.467Z,0
2017-04-14T02:36:29.743Z,0
2017-04-14T02:37:29.709Z,0
2017-04-14T02:38:29.695Z,0
2017-04-14T02:39:29.361Z,0
2017-04-14T02:40:29.685Z,0
2017-04-14T02:41:30.759Z,0
2017-04-14T02:42:29.585Z,0
2017-04-14T02:43:29.624Z,0
2017-04-14T02:44:29.545Z,0
2017-04-14T02:45:29.516Z,0
2017-04-14T02:46:29.184Z,0
2017-04-14T02:47:29.478Z,0
2017-04-14T02:48:29.463Z,0
2017-04-14T02:49:29.409Z,0
2017-04-14T02:50:29.386Z,0
2017-04-14T02:51:29.360Z,0
2017-04-14T02:52:29.335Z,0
2017-04-14T02:53:29.314Z,0
2017-04-14T02:54:29.292Z,0
2017-04-14T02:55:29.263Z,0
2017-04-14T02:56:29.543Z,0
2017-04-14T02:57:29.211Z,0
2017-04-14T02:58:29.242Z,0
2017-04-14T02:59:29.162Z,0
2017-04-14T03:00:29.147Z,0
2017-04-14T03:01:29.118Z,0
2017-04-14T03:02:29.088Z,0
2017-04-14T03:03:29.066Z,0
2017-04-14T03:04:29.041Z,0
2017-04-14T03:05:29.025Z,0
2017-04-14T03:06:29.034Z,0
2017-04-14T03:07:28.957Z,0
2017-04-14T03:08:28.937Z,0
2017-04-14T03:09:28.609Z,0
2017-04-14T03:10:28.887Z,0
2017-04-14T03:11:29.670Z,0
2017-04-14T03:12:28.839Z,0
2017-04-14T03:13:28.861Z,0
2017-04-14T03:14:28.786Z,0
2017-04-14T03:15:29.201Z,0
2017-04-14T03:16:28.733Z,0
2017-04-14T03:17:28.709Z,0
2017-04-14T03:18:28.731Z,0
2017-04-14T03:19:28.650Z,0
2017-04-14T03:20:28.631Z,0
2017-04-14T03:21:28.598Z,0
2017-04-14T03:22:28.576Z,0
2017-04-14T03:23:28.556Z,0
2017-04-14T03:24:28.545Z,0
2017-04-14T03:25:28.554Z,0
2017-04-14T03:26:28.240Z,0
2017-04-14T03:27:28.458Z,0
2017-04-14T03:28:28.439Z,0
2017-04-14T03:29:28.398Z,0
2017-04-14T03:30:28.370Z,0
2017-04-14T03:31:28.348Z,0
2017-04-14T03:32:28.326Z,0
2017-04-14T03:33:28.293Z,0
2017-04-14T03:34:28.280Z,0
2017-04-14T03:35:28.247Z,0
2017-04-14T03:36:28.219Z,0
2017-04-14T03:37:28.202Z,0
2017-04-14T03:38:28.173Z,0
2017-04-14T03:39:28.150Z,0
2017-04-14T03:40:28.176Z,0
2017-04-14T03:41:28.092Z,0
2017-04-14T03:42:28.071Z,0
2017-04-14T03:43:28.051Z,0
2017-04-14T03:44:28.024Z,0
2017-04-14T03:45:27.995Z,0
2017-04-14T03:46:27.963Z,0
2017-04-14T03:47:27.942Z,0
2017-04-14T03:48:27.623Z,0
2017-04-14T03:49:27.889Z,0
2017-04-14T03:50:27.914Z,0
2017-04-14T03:51:27.843Z,0
2017-04-14T03:52:27.822Z,0
2017-04-14T03:53:27.801Z,0
2017-04-14T03:54:27.781Z,0
2017-04-14T03:55:27.734Z,0
2017-04-14T03:56:29.009Z,0
2017-04-14T03:57:27.686Z,0
2017-04-14T03:58:27.674Z,0
2017-04-14T03:59:27.633Z,4
2017-04-14T04:00:27.010Z,4
2017-04-14T04:01:27.647Z,0
2017-04-14T04:02:27.272Z,0
2017-04-14T04:03:27.755Z,4
2017-04-14T04:04:27.512Z,4
2017-04-14T04:05:27.482Z,4
2017-04-14T04:06:27.457Z,8
2017-04-14T04:07:27.429Z,4
2017-04-14T04:08:27.417Z,4
2017-04-14T04:09:27.385Z,8
2017-04-14T04:10:27.354Z,8
2017-04-14T04:11:29.230Z,8
2017-04-14T04:12:27.298Z,12
2017-04-14T04:13:27.281Z,16
2017-04-14T04:14:26.960Z,16
2017-04-14T04:15:26.926Z,20
2017-04-14T04:16:27.225Z,28
2017-04-14T04:17:27.174Z,28
2017-04-14T04:18:27.143Z,32
2017-04-14T04:19:27.121Z,40
2017-04-14T04:20:27.099Z,44
2017-04-14T04:21:27.069Z,48
2017-04-14T04:22:27.049Z,56
2017-04-14T04:23:26.769Z,64
2017-04-14T04:24:26.693Z,72
2017-04-14T04:25:26.968Z,80
2017-04-14T04:26:27.691Z,92
2017-04-14T04:27:26.921Z,104
2017-04-14T04:28:26.904Z,116
2017-04-14T04:29:26.565Z,136
2017-04-14T04:30:26.846Z,148
2017-04-14T04:31:26.817Z,164
2017-04-14T04:32:26.785Z,184
2017-04-14T04:33:26.771Z,204
2017-04-14T04:34:26.741Z,220
2017-04-14T04:35:26.714Z,248
2017-04-14T04:36:26.388Z,268
2017-04-14T04:37:26.655Z,292
2017-04-14T04:38:26.839Z,320
2017-04-14T04:39:27.161Z,352
2017-04-14T04:40:26.639Z,388
2017-04-14T04:41:26.554Z,416
2017-04-14T04:42:26.587Z,452
2017-04-14T04:43:26.518Z,488
2017-04-14T04:44:26.489Z,528
2017-04-14T04:45:26.459Z,568
2017-04-14T04:46:26.431Z,608
2017-04-14T04:47:26.414Z,652
2017-04-14T04:48:26.436Z,696
2017-04-14T04:49:26.365Z,736
2017-04-14T04:50:26.026Z,780
2017-04-14T04:51:26.361Z,820
2017-04-14T04:52:26.273Z,884
2017-04-14T04:53:26.317Z,956
2017-04-14T04:54:26.235Z,1024
2017-04-14T04:55:26.215Z,1096
2017-04-14T04:56:26.176Z,1168
2017-04-14T04:57:25.849Z,1252
2017-04-14T04:58:26.145Z,1340
2017-04-14T04:59:26.108Z,1420
2017-04-14T05:00:26.066Z,1536
2017-04-14T05:01:26.755Z,1628
2017-04-14T05:02:26.023Z,1684
2017-04-14T05:03:25.696Z,1760
2017-04-14T05:04:25.970Z,1840
2017-04-14T05:05:25.950Z,1924
2017-04-14T05:06:26.869Z,2000
2017-04-14T05:07:25.897Z,2088
2017-04-14T05:08:25.874Z,2208
2017-04-14T05:09:25.851Z,2328
2017-04-14T05:10:25.848Z,2436
2017-04-14T05:11:25.790Z,2520
2017-04-14T05:12:25.771Z,2416
2017-04-14T05:13:25.742Z,2308
2017-04-14T05:14:25.745Z,2984
2017-04-14T05:15:25.694Z,3204
2017-04-14T05:16:25.732Z,2888
2017-04-14T05:17:25.643Z,3752
2017-04-14T05:18:25.668Z,4036
2017-04-14T05:19:25.645Z,4296
2017-04-14T05:20:25.570Z,4492
2017-04-14T05:21:25.549Z,4696
2017-04-14T05:22:25.523Z,4928
2017-04-14T05:23:25.494Z,4992
2017-04-14T05:24:25.228Z,4924
2017-04-14T05:25:25.503Z,4488
2017-04-14T05:26:25.429Z,5240
2017-04-14T05:27:25.399Z,5736
2017-04-14T05:28:25.377Z,5952
2017-04-14T05:29:25.048Z,6104
2017-04-14T05:30:25.329Z,6332
2017-04-14T05:31:25.297Z,6504
2017-04-14T05:32:25.275Z,5876
2017-04-14T05:33:25.251Z,6716
2017-04-14T05:34:25.243Z,6824
2017-04-14T05:35:25.215Z,6840
2017-04-14T05:36:25.237Z,6692
2017-04-14T05:37:25.163Z,6656
2017-04-14T05:38:25.146Z,6524
2017-04-14T05:39:25.116Z,6316
2017-04-14T05:40:26.644Z,6324
2017-04-14T05:41:25.073Z,6424
2017-04-14T05:42:25.045Z,6588
2017-04-14T05:43:25.022Z,6800
2017-04-14T05:44:25.046Z,7148
2017-04-14T05:45:24.977Z,7508
2017-04-14T05:46:24.952Z,7840
2017-04-14T05:47:25.981Z,8444
2017-04-14T05:48:24.918Z,9008
2017-04-14T05:49:24.880Z,9312
2017-04-14T05:50:24.861Z,9332
2017-04-14T05:51:25.241Z,9484
2017-04-14T05:52:24.813Z,9944
2017-04-14T05:53:24.797Z,10344
2017-04-14T05:54:24.772Z,10452
2017-04-14T05:55:24.747Z,10720
2017-04-14T05:56:25.830Z,11044
2017-04-14T05:57:24.707Z,11108
2017-04-14T05:58:25.655Z,11276
2017-04-14T05:59:24.662Z,11440
2017-04-14T06:00:24.631Z,11692
2017-04-14T06:01:24.616Z,11780
2017-04-14T06:02:24.593Z,11896
2017-04-14T06:03:24.574Z,12104
2017-04-14T06:04:24.558Z,12060
2017-04-14T06:05:24.534Z,12360
2017-04-14T06:06:24.503Z,12468
2017-04-14T06:07:24.537Z,12540
2017-04-14T06:08:24.471Z,12836
2017-04-14T06:09:24.446Z,13036
2017-04-14T06:10:25.427Z,13040
2017-04-14T06:11:24.409Z,13332
2017-04-14T06:12:24.383Z,13704
2017-04-14T06:13:24.062Z,13964
2017-04-14T06:14:24.342Z,14272
2017-04-14T06:15:24.311Z,14144
2017-04-14T06:16:24.304Z,13792
2017-04-14T06:17:24.277Z,13824
2017-04-14T06:18:24.254Z,14336
2017-04-14T06:19:24.242Z,14720
2017-04-14T06:20:24.214Z,14912
2017-04-14T06:21:24.196Z,14656
2017-04-14T06:22:24.170Z,14624
2017-04-14T06:23:24.359Z,14624
2017-04-14T06:24:24.146Z,15072
2017-04-14T06:25:24.114Z,15840
2017-04-14T06:26:24.095Z,16192
2017-04-14T06:27:24.126Z,16032
2017-04-14T06:28:24.058Z,15936
2017-04-14T06:29:24.044Z,16352
2017-04-14T06:30:24.020Z,16768
2017-04-14T06:31:24.009Z,17216
2017-04-14T06:32:23.976Z,17184
2017-04-14T06:33:23.963Z,17344
2017-04-14T06:34:23.944Z,17408
2017-04-14T06:35:24.371Z,17440
2017-04-14T06:36:23.924Z,18016
2017-04-14T06:37:23.884Z,18592
2017-04-14T06:38:23.871Z,17664
2017-04-14T06:39:23.854Z,10876
2017-04-14T06:40:23.845Z,13496
2017-04-14T06:41:23.827Z,18528
2017-04-14T06:42:23.798Z,19456
2017-04-14T06:43:23.785Z,20000
2017-04-14T06:44:23.756Z,20384
2017-04-14T06:45:23.750Z,21280
2017-04-14T06:46:23.731Z,22016
2017-04-14T06:47:24.761Z,22688
2017-04-14T06:48:23.397Z,22624
2017-04-14T06:49:23.719Z,22848
2017-04-14T06:50:23.654Z,22176
2017-04-14T06:51:23.639Z,18112
2017-04-14T06:52:23.622Z,11240
2017-04-14T06:53:23.609Z,10876
2017-04-14T06:54:23.593Z,12196
2017-04-14T06:55:23.578Z,12724
2017-04-14T06:56:23.255Z,24896
2017-04-14T06:57:23.530Z,24992
2017-04-14T06:58:23.520Z,24832
2017-04-14T06:59:23.495Z,22784
2017-04-14T07:00:23.487Z,24864
2017-04-14T07:01:23.511Z,27040
2017-04-14T07:02:23.542Z,30176
2017-04-14T07:03:23.487Z,32320
2017-04-14T07:04:23.413Z,33216
2017-04-14T07:05:23.408Z,32768
2017-04-14T07:06:23.673Z,30848
2017-04-14T07:07:23.065Z,27200
2017-04-14T07:08:23.343Z,11140
2017-04-14T07:09:23.335Z,8332
2017-04-14T07:10:23.310Z,7584
2017-04-14T07:11:23.300Z,7380
2017-04-14T07:12:23.279Z,7260
2017-04-14T07:13:23.264Z,7168
2017-04-14T07:14:22.949Z,7120
2017-04-14T07:15:23.224Z,7144
2017-04-14T07:16:22.660Z,7116
2017-04-14T07:17:23.441Z,7080
2017-04-14T07:18:23.173Z,7044
2017-04-14T07:19:23.153Z,6928
2017-04-14T07:20:23.136Z,6840
2017-04-14T07:21:23.118Z,6776
2017-04-14T07:22:23.096Z,6812
2017-04-14T07:23:23.090Z,7016
2017-04-14T07:24:23.060Z,7388
2017-04-14T07:25:23.053Z,7744
2017-04-14T07:26:23.036Z,8084
2017-04-14T07:27:24.819Z,8220
2017-04-14T07:28:22.689Z,8380
2017-04-14T07:29:22.972Z,8516
2017-04-14T07:30:22.651Z,8788
2017-04-14T07:31:22.620Z,9312
2017-04-14T07:32:22.900Z,9776
2017-04-14T07:33:22.884Z,10080
2017-04-14T07:34:22.859Z,10340
2017-04-14T07:35:23.140Z,10716
2017-04-14T07:36:22.532Z,10992
2017-04-14T07:37:24.407Z,11096
2017-04-14T07:38:22.781Z,10936
2017-04-14T07:39:22.763Z,10536
2017-04-14T07:40:22.741Z,10392
2017-04-14T07:41:22.728Z,10528
2017-04-14T07:42:22.693Z,10396
2017-04-14T07:43:23.596Z,10588
2017-04-14T07:44:22.656Z,10896
2017-04-14T07:45:22.645Z,11124
2017-04-14T07:46:22.610Z,11056
2017-04-14T07:47:22.597Z,10492
2017-04-14T07:48:22.594Z,9764
2017-04-14T07:49:22.851Z,8956
2017-04-14T07:50:22.527Z,8424
2017-04-14T07:51:22.558Z,8008
2017-04-14T07:52:22.489Z,7768
2017-04-14T07:53:22.467Z,7656
2017-04-14T07:54:22.444Z,7652
2017-04-14T07:55:22.422Z,7756
2017-04-14T07:56:23.500Z,7880
2017-04-14T07:57:22.382Z,7892
2017-04-14T07:58:22.070Z,7896
2017-04-14T07:59:24.037Z,7936
2017-04-14T08:00:22.322Z,8048
2017-04-14T08:01:22.283Z,8012
2017-04-14T08:02:22.274Z,8012
2017-04-14T08:03:22.257Z,7984
2017-04-14T08:04:22.228Z,8024
2017-04-14T08:05:22.217Z,8104
2017-04-14T08:06:22.188Z,8232
2017-04-14T08:07:22.515Z,8328
2017-04-14T08:08:22.195Z,8444
2017-04-14T08:09:22.126Z,8400
2017-04-14T08:10:22.097Z,8332
2017-04-14T08:11:22.080Z,8304
2017-04-14T08:12:22.060Z,8432
2017-04-14T08:13:21.739Z,8600
2017-04-14T08:14:22.024Z,8728
2017-04-14T08:15:21.993Z,8644
2017-04-14T08:16:21.970Z,8556
2017-04-14T08:17:21.954Z,8532
2017-04-14T08:18:22.425Z,8484
2017-04-14T08:19:21.910Z,8448
2017-04-14T08:20:21.935Z,8412
2017-04-14T08:21:21.875Z,8332
2017-04-14T08:22:21.845Z,8332
2017-04-14T08:23:21.873Z,8420
2017-04-14T08:24:21.796Z,8588
2017-04-14T08:25:21.776Z,8684
2017-04-14T08:26:21.745Z,8676
2017-04-14T08:27:22.278Z,8752
2017-04-14T08:28:21.712Z,8884
2017-04-14T08:29:21.692Z,8960
2017-04-14T08:30:21.673Z,9100
2017-04-14T08:31:21.643Z,9148
2017-04-14T08:32:21.026Z,9240
2017-04-14T08:33:21.635Z,9292
2017-04-14T08:34:20.982Z,9256
2017-04-14T08:35:21.558Z,9180
2017-04-14T08:36:21.535Z,9224
2017-04-14T08:37:22.516Z,9152
2017-04-14T08:38:21.501Z,9100
2017-04-14T08:39:21.464Z,9076
2017-04-14T08:40:21.450Z,9024
2017-04-14T08:41:21.422Z,8900
2017-04-14T08:42:21.402Z,8816
2017-04-14T08:43:21.390Z,8820
2017-04-14T08:44:21.380Z,8828
2017-04-14T08:45:21.386Z,8824
2017-04-14T08:46:21.318Z,8820
2017-04-14T08:47:21.286Z,8984
2017-04-14T08:48:21.285Z,9216
2017-04-14T08:49:21.303Z,9436
2017-04-14T08:50:21.231Z,9604
2017-04-14T08:51:21.209Z,9556
2017-04-14T08:52:21.190Z,9456
2017-04-14T08:53:21.166Z,9488
2017-04-14T08:54:21.152Z,9512
2017-04-14T08:55:20.870Z,9660
2017-04-14T08:56:21.097Z,9708
2017-04-14T08:57:21.078Z,9556
2017-04-14T08:58:21.104Z,9412
2017-04-14T08:59:21.038Z,9452
2017-04-14T09:00:20.704Z,9416
2017-04-14T09:01:35.599Z,9220
2017-04-14T09:02:20.677Z,9064
2017-04-14T09:03:20.944Z,8740
2017-04-14T09:04:20.921Z,8644
2017-04-14T09:05:20.908Z,8556
2017-04-14T09:06:20.927Z,8516
2017-04-14T09:07:20.561Z,8460
2017-04-14T09:08:20.848Z,8292
2017-04-14T09:09:20.879Z,8140
2017-04-14T09:10:20.810Z,7960
2017-04-14T09:11:20.766Z,7936
2017-04-14T09:12:20.449Z,7872
2017-04-14T09:13:20.720Z,7728
2017-04-14T09:14:20.699Z,7492
2017-04-14T09:15:20.688Z,7312
2017-04-14T09:16:20.659Z,7336
2017-04-14T09:17:20.633Z,7408
2017-04-14T09:18:20.608Z,7532
2017-04-14T09:19:20.845Z,7492
2017-04-14T09:20:20.572Z,7340
2017-04-14T09:21:20.564Z,7296
2017-04-14T09:22:20.533Z,7436
2017-04-14T09:23:20.567Z,7572
2017-04-14T09:24:20.736Z,7588
2017-04-14T09:25:20.467Z,7532
2017-04-14T09:26:20.196Z,7404
2017-04-14T09:27:20.435Z,7392
2017-04-14T09:28:20.394Z,7448
2017-04-14T09:29:20.072Z,7384
2017-04-14T09:30:20.416Z,7376
2017-04-14T09:31:20.026Z,7412
2017-04-14T09:32:20.006Z,7296
2017-04-14T09:33:20.288Z,7076
2017-04-14T09:34:20.272Z,6912
2017-04-14T09:35:19.943Z,6848
2017-04-14T09:36:19.974Z,6864
2017-04-14T09:37:20.198Z,6840
2017-04-14T09:38:20.380Z,6888
2017-04-14T09:39:20.161Z,6924
2017-04-14T09:40:20.123Z,7088
2017-04-14T09:41:19.860Z,7188
2017-04-14T09:42:20.105Z,7228
2017-04-14T09:43:20.066Z,7228
2017-04-14T09:44:20.043Z,7308
2017-04-14T09:45:19.730Z,7488
2017-04-14T09:46:20.056Z,7552
2017-04-14T09:47:19.975Z,7480
2017-04-14T09:48:19.961Z,7376
2017-04-14T09:49:19.934Z,7160
2017-04-14T09:50:19.910Z,7012
2017-04-14T09:51:19.890Z,6868
2017-04-14T09:52:19.863Z,6828
2017-04-14T09:53:19.846Z,6864
2017-04-14T09:54:19.826Z,7096
2017-04-14T09:55:19.849Z,7384
2017-04-14T09:56:19.788Z,7908
2017-04-14T09:57:19.763Z,8352
2017-04-14T09:58:19.802Z,8528
2017-04-14T09:59:19.713Z,8464
2017-04-14T10:00:19.716Z,8284
2017-04-14T10:01:19.668Z,7984
2017-04-14T10:02:19.350Z,7848
2017-04-14T10:03:19.626Z,7724
2017-04-14T10:04:19.057Z,7484
2017-04-14T10:05:19.583Z,7068
2017-04-14T10:06:19.586Z,6680
2017-04-14T10:07:19.551Z,6420
2017-04-14T10:08:19.543Z,6316
2017-04-14T10:09:19.504Z,6252
2017-04-14T10:10:19.475Z,6240
2017-04-14T10:11:19.455Z,6204
2017-04-14T10:12:20.285Z,6208
2017-04-14T10:13:19.412Z,6308
2017-04-14T10:14:19.635Z,6352
2017-04-14T10:15:19.360Z,6456
2017-04-14T10:16:19.340Z,6488
2017-04-14T10:17:19.022Z,6412
2017-04-14T10:18:19.312Z,6544
2017-04-14T10:19:18.682Z,6688
2017-04-14T10:20:19.260Z,6856
2017-04-14T10:21:19.225Z,6848
2017-04-14T10:22:19.209Z,6888
2017-04-14T10:23:19.202Z,7140
2017-04-14T10:24:19.670Z,7388
2017-04-14T10:25:18.836Z,7528
2017-04-14T10:26:19.122Z,7608
2017-04-14T10:27:18.854Z,7612
2017-04-14T10:28:18.787Z,7816
2017-04-14T10:29:19.069Z,7932
2017-04-14T10:30:19.033Z,7964
2017-04-14T10:31:19.064Z,7988
2017-04-14T10:32:18.996Z,8004
2017-04-14T10:33:19.840Z,8180
2017-04-14T10:34:18.656Z,8408
2017-04-14T10:35:18.924Z,8492
2017-04-14T10:36:18.670Z,8332
2017-04-14T10:37:18.882Z,8204
2017-04-14T10:38:18.866Z,8144
2017-04-14T10:39:18.845Z,7936
2017-04-14T10:40:18.514Z,7940
2017-04-14T10:41:18.803Z,7828
2017-04-14T10:42:18.773Z,7812
2017-04-14T10:43:18.750Z,8068
2017-04-14T10:44:18.738Z,8428
2017-04-14T10:45:18.469Z,8748
2017-04-14T10:46:18.679Z,8992
2017-04-14T10:47:19.863Z,9200
2017-04-14T10:48:18.346Z,9564
2017-04-14T10:49:18.617Z,9948
2017-04-14T10:50:18.601Z,10424
2017-04-14T10:51:18.278Z,10736
2017-04-14T10:52:18.554Z,11160
2017-04-14T10:53:18.531Z,11304
2017-04-14T10:54:18.510Z,11072
2017-04-14T10:55:18.492Z,10824
2017-04-14T10:56:18.469Z,10824
2017-04-14T10:57:18.446Z,10932
2017-04-14T10:58:18.649Z,10888
2017-04-14T10:59:18.451Z,10524
2017-04-14T11:00:18.373Z,10304
2017-04-14T11:01:18.373Z,10240
2017-04-14T11:02:18.337Z,10376
2017-04-14T11:03:18.315Z,10688
2017-04-14T11:04:18.004Z,10952
2017-04-14T11:05:18.262Z,11044
2017-04-14T11:06:18.246Z,10976
2017-04-14T11:07:17.980Z,10876
2017-04-14T11:08:17.900Z,10620
2017-04-14T11:09:18.581Z,10204
2017-04-14T11:10:18.166Z,9816
2017-04-14T11:11:18.197Z,9504
2017-04-14T11:12:18.118Z,9240
2017-04-14T11:13:17.499Z,9008
2017-04-14T11:14:17.481Z,8740
2017-04-14T11:15:18.063Z,8532
2017-04-14T11:16:18.034Z,8588
2017-04-14T11:17:18.026Z,8792
2017-04-14T11:18:17.698Z,9300
2017-04-14T11:19:17.978Z,10084
2017-04-14T11:20:17.944Z,10992
2017-04-14T11:21:17.977Z,11956
2017-04-14T11:22:17.906Z,13116
2017-04-14T11:23:17.883Z,13352
2017-04-14T11:24:17.865Z,13200
2017-04-14T11:25:17.898Z,13256
2017-04-14T11:26:17.520Z,13284
2017-04-14T11:27:17.811Z,13124
2017-04-14T11:28:17.786Z,13080
2017-04-14T11:29:17.758Z,13068
2017-04-14T11:30:17.736Z,13024
2017-04-14T11:31:19.016Z,12980
2017-04-14T11:32:17.737Z,12820
2017-04-14T11:33:17.361Z,12720
2017-04-14T11:34:17.354Z,12672
2017-04-14T11:35:17.622Z,12664
2017-04-14T11:36:17.620Z,12708
2017-04-14T11:37:17.933Z,12948
2017-04-14T11:38:17.265Z,13176
2017-04-14T11:39:16.955Z,13288
2017-04-14T11:40:16.938Z,13256
2017-04-14T11:41:17.505Z,12976
2017-04-14T11:42:17.533Z,12772
2017-04-14T11:43:17.464Z,12796
2017-04-14T11:44:17.455Z,12520
2017-04-14T11:45:17.131Z,12360
2017-04-14T11:46:17.405Z,12216
2017-04-14T11:47:16.979Z,12180
2017-04-14T11:48:17.370Z,12184
2017-04-14T11:49:17.042Z,11976
2017-04-14T11:50:17.322Z,11992
2017-04-14T11:51:17.289Z,12104
2017-04-14T11:52:17.425Z,12348
2017-04-14T11:53:16.952Z,12764
2017-04-14T11:54:17.231Z,12976
2017-04-14T11:55:17.463Z,13072
2017-04-14T11:56:17.198Z,13448
2017-04-14T11:57:17.174Z,13784
2017-04-14T11:58:17.149Z,14096
2017-04-14T11:59:17.127Z,14328
2017-04-14T12:00:17.106Z,14168
2017-04-14T12:01:17.078Z,13132
2017-04-14T12:02:17.057Z,12440
2017-04-14T12:03:17.049Z,12400
2017-04-14T12:04:17.032Z,12740
2017-04-14T12:05:18.439Z,14052
2017-04-14T12:06:17.038Z,15476
2017-04-14T12:07:17.027Z,16108
2017-04-14T12:08:17.199Z,17088
2017-04-14T12:09:16.612Z,17184
2017-04-14T12:10:16.897Z,17536
2017-04-14T12:11:16.622Z,17920
2017-04-14T12:12:16.860Z,18080
2017-04-14T12:13:16.840Z,18624
2017-04-14T12:14:17.169Z,18496
2017-04-14T12:15:16.789Z,18144
2017-04-14T12:16:16.769Z,17568
2017-04-14T12:17:16.694Z,17056
2017-04-14T12:18:16.723Z,15868
2017-04-14T12:19:16.718Z,15172
2017-04-14T12:20:16.443Z,14332
2017-04-14T12:21:16.670Z,14452
2017-04-14T12:22:16.455Z,13888
2017-04-14T12:23:16.322Z,14572
2017-04-14T12:24:16.632Z,15172
2017-04-14T12:25:16.588Z,14792
2017-04-14T12:26:16.572Z,14892
2017-04-14T12:27:16.545Z,16000
2017-04-14T12:28:16.224Z,16704
2017-04-14T12:29:16.513Z,16960
2017-04-14T12:30:16.503Z,16864
2017-04-14T12:31:16.467Z,15956
2017-04-14T12:32:16.447Z,15632
2017-04-14T12:33:16.427Z,15448
2017-04-14T12:34:16.410Z,15624
2017-04-14T12:35:16.385Z,15312
2017-04-14T12:36:16.363Z,14580
2017-04-14T12:37:16.338Z,14076
2017-04-14T12:38:16.328Z,13012
2017-04-14T12:39:16.306Z,12520
2017-04-14T12:40:15.982Z,11656
2017-04-14T12:41:16.059Z,11040
2017-04-14T12:42:16.245Z,10652
2017-04-14T12:43:16.217Z,9928
2017-04-14T12:44:15.902Z,8984
2017-04-14T12:45:16.179Z,8624
2017-04-14T12:46:16.156Z,8916
2017-04-14T12:47:16.191Z,8628
2017-04-14T12:48:16.171Z,8764
2017-04-14T12:49:16.100Z,8680
2017-04-14T12:50:16.079Z,8232
2017-04-14T12:51:16.054Z,8272
2017-04-14T12:52:16.087Z,8552
2017-04-14T12:53:16.021Z,7508
2017-04-14T12:54:15.707Z,8176
2017-04-14T12:55:15.966Z,8416
2017-04-14T12:56:15.957Z,9128
2017-04-14T12:57:15.936Z,9700
2017-04-14T12:58:15.919Z,9940
2017-04-14T12:59:15.894Z,9708
2017-04-14T13:00:15.913Z,9444
2017-04-14T13:01:15.903Z,9324
2017-04-14T13:02:15.826Z,9152
2017-04-14T13:03:15.806Z,8848
2017-04-14T13:04:15.779Z,8696
2017-04-14T13:05:15.762Z,8280
2017-04-14T13:06:15.743Z,7656
2017-04-14T13:07:15.437Z,7300
2017-04-14T13:08:17.060Z,6880
2017-04-14T13:09:15.675Z,6760
2017-04-14T13:10:15.653Z,6540
2017-04-14T13:11:15.436Z,6900
2017-04-14T13:12:15.617Z,6836
2017-04-14T13:13:15.298Z,6516
2017-04-14T13:14:15.286Z,6280
2017-04-14T13:15:15.547Z,6204
2017-04-14T13:16:15.527Z,6248
2017-04-14T13:17:16.206Z,6304
2017-04-14T13:18:16.800Z,6192
2017-04-14T13:19:15.487Z,5908
2017-04-14T13:20:15.453Z,5628
2017-04-14T13:21:15.427Z,5920
2017-04-14T13:22:15.456Z,6240
2017-04-14T13:23:15.388Z,6488
2017-04-14T13:24:15.375Z,6344
2017-04-14T13:25:15.348Z,5580
2017-04-14T13:26:15.037Z,5104
2017-04-14T13:27:15.295Z,5040
2017-04-14T13:28:14.991Z,5392
2017-04-14T13:29:14.959Z,5776
2017-04-14T13:30:15.252Z,6368
2017-04-14T13:31:15.218Z,6808
2017-04-14T13:32:14.893Z,6984
2017-04-14T13:33:14.881Z,6960
2017-04-14T13:34:15.153Z,6868
2017-04-14T13:35:15.130Z,6996
2017-04-14T13:36:16.108Z,7364
2017-04-14T13:37:15.143Z,7668
2017-04-14T13:38:15.166Z,7432
2017-04-14T13:39:15.045Z,7176